createdAt,value
2019-05-09T00:02:46.395Z,11.10
2019-05-09T00:05:22.293Z,20.87
2019-05-09T00:07:53.241Z,8.67
2019-05-09T00:10:38.388Z,9.00
2019-05-09T00:12:59.117Z,9.67
2019-05-09T00:15:30.420Z,9.10
2019-05-09T00:18:03.820Z,10.90
2019-05-09T00:20:46.462Z,14.57
2019-05-09T00:23:18.055Z,8.47
2019-05-09T00:25:49.650Z,10.90
2019-05-09T00:28:23.629Z,10.90
2019-05-09T00:31:05.764Z,11.17
2019-05-09T00:33:37.193Z,10.13
2019-05-09T00:36:08.573Z,11.23
2019-05-09T00:38:44.748Z,14.30
2019-05-09T00:41:17.447Z,9.60
2019-05-09T00:43:54.831Z,10.23
2019-05-09T00:46:43.133Z,9.20
2019-05-09T00:49:23.417Z,11.80
2019-05-09T00:51:54.437Z,14.33
2019-05-09T00:54:26.826Z,13.77
2019-05-09T00:57:00.091Z,8.37
2019-05-09T00:59:33.223Z,11.27
2019-05-09T01:02:06.006Z,9.33
2019-05-09T01:04:37.447Z,8.73
2019-05-09T01:07:09.494Z,5.93
2019-05-09T01:09:43.939Z,11.00
2019-05-09T01:12:16.283Z,8.17
2019-05-09T01:14:48.101Z,13.13
2019-05-09T01:17:20.572Z,9.80
2019-05-09T01:19:53.857Z,9.50
2019-05-09T01:22:25.768Z,8.37
2019-05-09T01:24:57.823Z,11.57
2019-05-09T01:27:29.720Z,8.80
2019-05-09T01:30:04.272Z,12.23
2019-05-09T01:32:54.400Z,10.33
2019-05-09T01:35:26.578Z,7.37
2019-05-09T01:37:59.182Z,10.70
2019-05-09T01:40:33.196Z,14.73
2019-05-09T01:43:05.686Z,12.03
2019-05-09T01:45:37.480Z,13.40
2019-05-09T01:48:08.860Z,9.83
2019-05-09T01:50:40.280Z,15.50
2019-05-09T01:53:13.487Z,16.30
2019-05-09T01:56:03.429Z,13.67
2019-05-09T01:58:35.723Z,11.53
2019-05-09T02:01:08.869Z,15.93
2019-05-09T02:03:44.297Z,17.43
2019-05-09T02:06:16.009Z,16.77
2019-05-09T02:08:48.887Z,9.67
2019-05-09T02:11:20.507Z,10.57
2019-05-09T02:13:53.499Z,8.20
2019-05-09T02:16:44.389Z,13.73
2019-05-09T02:19:29.658Z,9.03
2019-05-09T02:22:06.636Z,9.83
2019-05-09T02:24:38.695Z,12.73
2019-05-09T02:27:10.585Z,8.80
2019-05-09T02:29:43.983Z,9.90
2019-05-09T02:32:15.637Z,7.17
2019-05-09T02:34:47.984Z,10.00
2019-05-09T02:37:19.827Z,8.10
2019-05-09T02:39:51.502Z,11.43
2019-05-09T02:42:23.020Z,12.90
2019-05-09T02:44:55.840Z,9.37
2019-05-09T02:47:29.002Z,12.57
2019-05-09T02:50:01.419Z,7.03
2019-05-09T02:52:34.663Z,8.07
2019-05-09T02:55:09.818Z,9.60
2019-05-09T02:57:41.314Z,10.03
2019-05-09T03:00:21.909Z,11.23
2019-05-09T03:03:09.707Z,9.17
2019-05-09T03:05:41.219Z,9.80
2019-05-09T03:08:12.958Z,12.73
2019-05-09T03:10:45.169Z,8.77
2019-05-09T03:13:19.291Z,11.07
2019-05-09T03:15:52.660Z,8.93
2019-05-09T03:18:24.228Z,12.47
2019-05-09T03:21:19.187Z,8.50
2019-05-09T03:23:50.892Z,10.33
2019-05-09T03:26:29.265Z,12.03
2019-05-09T03:29:22.197Z,8.43
2019-05-09T03:31:59.756Z,10.60
2019-05-09T03:34:30.049Z,10.33
2019-05-09T03:37:02.380Z,8.63
2019-05-09T03:39:34.097Z,11.07
2019-05-09T03:42:07.671Z,9.33
2019-05-09T03:44:38.687Z,12.47
2019-05-09T03:47:23.442Z,9.63
2019-05-09T03:50:17.737Z,11.90
2019-05-09T03:52:49.293Z,8.00
2019-05-09T03:55:34.323Z,11.83
2019-05-09T03:58:13.307Z,7.23
2019-05-09T04:00:47.773Z,8.63
2019-05-09T04:03:20.320Z,6.77
2019-05-09T04:05:59.298Z,10.87
2019-05-09T04:08:28.052Z,8.13
2019-05-09T04:10:59.233Z,6.97
2019-05-09T04:13:40.143Z,9.10
2019-05-09T04:16:12.127Z,8.13
2019-05-09T04:18:43.488Z,11.63
2019-05-09T04:21:17.436Z,10.20
2019-05-09T04:23:48.519Z,7.40
2019-05-09T04:26:54.192Z,8.63
2019-05-09T04:29:28.699Z,9.70
2019-05-09T04:32:00.144Z,11.77
2019-05-09T04:34:33.682Z,9.17
2019-05-09T04:37:05.115Z,6.70
2019-05-09T04:39:38.642Z,5.73
2019-05-09T04:42:11.013Z,10.70
2019-05-09T04:44:56.643Z,8.37
2019-05-09T04:47:22.113Z,9.97
2019-05-09T04:49:54.374Z,10.97
2019-05-09T04:52:27.937Z,6.53
2019-05-09T04:55:00.291Z,9.77
2019-05-09T04:57:32.580Z,8.77
2019-05-09T05:00:04.562Z,5.63
2019-05-09T05:02:41.510Z,6.53
2019-05-09T05:05:12.899Z,11.17
2019-05-09T05:07:44.616Z,7.53
2019-05-09T05:10:18.445Z,10.23
2019-05-09T05:12:49.597Z,9.03
2019-05-09T05:15:20.907Z,10.20
2019-05-09T05:17:53.295Z,14.80
2019-05-09T05:20:27.802Z,9.93
2019-05-09T05:23:08.104Z,11.80
2019-05-09T05:25:39.793Z,11.17
2019-05-09T05:28:11.309Z,8.03
2019-05-09T05:30:43.696Z,7.73
2019-05-09T05:33:33.062Z,12.80
2019-05-09T05:36:07.898Z,8.37
2019-05-09T05:38:41.013Z,12.83
2019-05-09T05:41:14.897Z,8.80
2019-05-09T05:43:47.939Z,11.40
2019-05-09T05:46:28.560Z,11.70
2019-05-09T05:48:59.934Z,14.77
2019-05-09T05:51:49.342Z,11.60
2019-05-09T05:54:22.583Z,12.67
2019-05-09T05:56:54.606Z,15.57
2019-05-09T05:59:28.660Z,12.30
2019-05-09T06:02:00.250Z,15.30
2019-05-09T06:04:32.226Z,9.23
2019-05-09T06:07:03.997Z,11.70
2019-05-09T06:09:37.705Z,12.80
2019-05-09T06:12:09.240Z,12.33
2019-05-09T06:14:40.627Z,12.43
2019-05-09T06:17:12.795Z,12.40
2019-05-09T06:19:48.005Z,17.53
2019-05-09T06:22:18.561Z,18.00
2019-05-09T06:24:49.932Z,18.50
2019-05-09T06:27:21.277Z,11.30
2019-05-09T06:29:52.970Z,18.57
2019-05-09T06:32:27.780Z,11.13
2019-05-09T06:34:58.844Z,14.93
2019-05-09T06:37:30.677Z,14.67
2019-05-09T06:40:02.006Z,13.47
2019-05-09T06:42:33.656Z,10.70
2019-05-09T06:45:22.695Z,12.27
2019-05-09T06:47:55.268Z,14.13
2019-05-09T06:50:28.021Z,12.83
2019-05-09T06:52:59.452Z,12.93
2019-05-09T06:55:31.016Z,11.57
2019-05-09T06:58:21.666Z,18.50
2019-05-09T07:00:59.296Z,11.23
2019-05-09T07:03:30.796Z,11.77
2019-05-09T07:06:28.177Z,14.10
2019-05-09T07:09:09.897Z,17.00
2019-05-09T07:11:42.574Z,12.67
2019-05-09T07:14:33.206Z,18.53
2019-05-09T07:17:03.343Z,14.73
2019-05-09T07:19:38.017Z,13.93
2019-05-09T07:22:28.214Z,12.83
2019-05-09T07:25:10.720Z,10.93
2019-05-09T07:27:40.979Z,9.83
2019-05-09T07:30:24.907Z,13.37
2019-05-09T07:33:18.525Z,14.00
2019-05-09T07:35:49.424Z,12.47
2019-05-09T07:38:29.486Z,13.57
2019-05-09T07:41:02.417Z,15.50
2019-05-09T07:43:35.552Z,18.93
2019-05-09T07:46:31.771Z,11.60
2019-05-09T07:49:08.621Z,14.20
2019-05-09T07:51:39.467Z,13.53
2019-05-09T07:54:23.959Z,10.10
2019-05-09T07:56:44.754Z,14.17
2019-05-09T07:59:18.196Z,18.20
2019-05-09T08:01:50.153Z,10.53
2019-05-09T08:04:25.062Z,12.70
2019-05-09T08:06:57.755Z,16.63
2019-05-09T08:09:28.962Z,11.83
2019-05-09T08:12:04.178Z,15.10
2019-05-09T08:14:37.874Z,11.87
2019-05-09T08:17:09.469Z,10.07
2019-05-09T08:19:40.802Z,9.40
2019-05-09T08:22:13.893Z,11.93
2019-05-09T08:24:48.356Z,12.60
2019-05-09T08:27:20.179Z,16.50
2019-05-09T08:29:51.563Z,10.57
2019-05-09T08:32:23.360Z,9.70
2019-05-09T08:34:57.470Z,14.87
2019-05-09T08:37:28.674Z,14.23
2019-05-09T08:40:00.202Z,18.53
2019-05-09T08:42:31.636Z,19.57
2019-05-09T08:45:04.019Z,22.73
2019-05-09T08:47:37.854Z,24.25
2019-05-09T08:50:32.923Z,17.52
2019-05-09T08:53:04.493Z,21.87
2019-05-09T08:55:38.390Z,12.30
2019-05-09T08:58:10.344Z,14.63
2019-05-09T09:00:43.158Z,15.57
2019-05-09T09:03:18.537Z,20.25
2019-05-09T09:05:50.953Z,12.85
2019-05-09T09:08:23.141Z,12.43
2019-05-09T09:10:57.651Z,15.85
2019-05-09T09:13:28.859Z,12.82
2019-05-09T09:16:14.370Z,14.50
2019-05-09T09:18:34.621Z,7.12
2019-05-09T09:21:08.084Z,11.93
2019-05-09T09:23:46.648Z,10.75
2019-05-09T09:26:13.385Z,11.30
2019-05-09T09:28:45.665Z,10.55
2019-05-09T09:31:18.627Z,10.23
2019-05-09T09:33:50.921Z,15.95
2019-05-09T09:36:22.310Z,10.28
2019-05-09T09:38:54.012Z,14.30
2019-05-09T09:41:28.526Z,9.70
2019-05-09T09:43:59.712Z,9.20
2019-05-09T09:46:31.263Z,9.90
2019-05-09T09:49:03.107Z,12.37
2019-05-09T09:51:34.770Z,12.98
2019-05-09T09:54:08.819Z,12.47
2019-05-09T09:56:41.849Z,7.12
2019-05-09T09:59:32.924Z,12.35
2019-05-09T10:02:09.967Z,10.50
2019-05-09T10:04:38.593Z,13.45
2019-05-09T10:07:11.503Z,15.15
2019-05-09T10:09:42.940Z,27.35
2019-05-09T10:12:18.036Z,24.65
2019-05-09T10:14:57.742Z,11.03
2019-05-09T10:17:42.524Z,16.90
2019-05-09T10:20:25.142Z,12.25
2019-05-09T10:23:08.675Z,13.65
2019-05-09T10:25:30.506Z,16.50
2019-05-09T10:28:02.105Z,16.10
2019-05-09T10:30:38.046Z,23.50
2019-05-09T10:33:10.411Z,20.08
2019-05-09T10:35:43.769Z,11.10
2019-05-09T10:38:18.177Z,16.00
2019-05-09T10:40:53.196Z,12.53
2019-05-09T10:43:38.804Z,14.10
2019-05-09T10:46:39.072Z,10.38
2019-05-09T10:49:02.536Z,13.25
2019-05-09T10:51:34.449Z,16.15
2019-05-09T10:54:08.076Z,11.12
2019-05-09T10:56:41.132Z,10.20
2019-05-09T10:59:14.411Z,17.45
2019-05-09T11:01:49.442Z,13.93
2019-05-09T11:04:19.025Z,12.20
2019-05-09T11:06:50.420Z,10.45
2019-05-09T11:09:21.892Z,11.43
2019-05-09T11:11:58.007Z,9.90
2019-05-09T11:14:36.537Z,16.48
2019-05-09T11:17:10.927Z,8.50
2019-05-09T11:19:36.226Z,12.07
2019-05-09T11:22:08.868Z,12.90
2019-05-09T11:24:46.141Z,13.28
2019-05-09T11:27:14.169Z,12.53
2019-05-09T11:29:47.502Z,8.20
2019-05-09T11:32:18.991Z,10.32
2019-05-09T11:34:50.886Z,14.70
2019-05-09T11:37:22.357Z,15.32
2019-05-09T11:39:53.888Z,10.58
2019-05-09T11:42:25.404Z,14.10
2019-05-09T11:44:58.023Z,11.73
2019-05-09T11:47:38.205Z,10.98
2019-05-09T11:50:03.875Z,10.35
2019-05-09T11:52:38.302Z,11.08
2019-05-09T11:55:28.509Z,11.28
2019-05-09T11:57:48.351Z,10.95
2019-05-09T12:00:19.681Z,13.05
2019-05-09T12:02:51.253Z,17.60
2019-05-09T12:05:22.603Z,12.53
2019-05-09T12:07:57.940Z,14.55
2019-05-09T12:10:30.408Z,16.32
2019-05-09T12:13:03.462Z,9.93
2019-05-09T12:15:34.967Z,12.85
2019-05-09T12:18:11.208Z,13.93
2019-05-09T12:20:40.758Z,14.33
2019-05-09T12:23:12.115Z,14.38
2019-05-09T12:25:43.902Z,12.55
2019-05-09T12:28:18.765Z,14.23
2019-05-09T12:30:50.313Z,13.00
2019-05-09T12:33:21.804Z,15.58
2019-05-09T12:35:54.918Z,12.50
2019-05-09T12:38:27.856Z,15.25
2019-05-09T12:41:00.553Z,12.78
2019-05-09T12:43:32.644Z,13.15
2019-05-09T12:46:04.555Z,12.40
2019-05-09T12:48:36.234Z,12.37
2019-05-09T12:51:08.652Z,13.35
2019-05-09T12:53:41.693Z,15.90
2019-05-09T12:56:15.242Z,17.35
2019-05-09T12:58:47.997Z,9.85
2019-05-09T13:01:20.023Z,14.28
2019-05-09T13:03:51.883Z,16.15
2019-05-09T13:06:23.399Z,15.30
2019-05-09T13:08:54.900Z,10.55
2019-05-09T13:11:28.090Z,13.00
2019-05-09T13:14:01.080Z,14.90
2019-05-09T13:16:49.003Z,20.50
2019-05-09T13:19:18.543Z,12.40
2019-05-09T13:21:51.301Z,12.60
2019-05-09T13:24:23.235Z,12.40
2019-05-09T13:26:54.949Z,16.45
2019-05-09T13:29:26.334Z,20.12
2019-05-09T13:31:57.968Z,16.65
2019-05-09T13:34:30.220Z,17.80
2019-05-09T13:37:02.060Z,9.60
2019-05-09T13:39:34.208Z,15.40
2019-05-09T13:42:08.186Z,16.45
2019-05-09T13:44:41.775Z,13.85
2019-05-09T13:47:13.139Z,14.35
2019-05-09T13:49:44.657Z,10.80
2019-05-09T13:52:17.934Z,12.90
2019-05-09T13:54:50.177Z,11.97
2019-05-09T13:57:22.546Z,10.20
2019-05-09T13:59:55.574Z,9.88
2019-05-09T14:02:29.175Z,15.45
2019-05-09T14:05:01.293Z,15.30
2019-05-09T14:07:33.374Z,16.48
2019-05-09T14:10:08.330Z,14.33
2019-05-09T14:12:39.971Z,17.50
2019-05-09T14:15:11.426Z,12.50
2019-05-09T14:17:49.834Z,12.25
2019-05-09T14:20:19.157Z,9.48
2019-05-09T14:22:51.758Z,9.55
2019-05-09T14:25:23.328Z,10.70
2019-05-09T14:27:54.680Z,12.45
2019-05-09T14:30:27.538Z,9.75
2019-05-09T14:33:00.401Z,14.55
2019-05-09T14:35:33.532Z,14.78
2019-05-09T14:38:05.653Z,10.72
2019-05-09T14:40:38.669Z,12.80
2019-05-09T14:43:10.133Z,10.72
2019-05-09T14:45:41.520Z,18.80
2019-05-09T14:48:13.902Z,15.58
2019-05-09T14:50:47.001Z,12.25
2019-05-09T14:53:20.787Z,12.20
2019-05-09T14:55:52.913Z,9.43
2019-05-09T14:58:24.490Z,9.60
2019-05-09T15:01:00.689Z,11.30
2019-05-09T15:03:31.444Z,8.33
2019-05-09T15:06:03.044Z,7.97
2019-05-09T15:08:34.533Z,10.32
2019-05-09T15:11:09.823Z,11.88
2019-05-09T15:13:40.401Z,6.67
2019-05-09T15:16:12.021Z,9.13
2019-05-09T15:18:44.921Z,7.92
2019-05-09T15:21:19.143Z,7.12
2019-05-09T15:23:51.015Z,8.55
2019-05-09T15:26:22.335Z,8.18
2019-05-09T15:28:53.886Z,10.93
2019-05-09T15:31:25.438Z,12.53
2019-05-09T15:33:59.231Z,9.45
2019-05-09T15:36:32.257Z,9.75
2019-05-09T15:39:08.049Z,6.58
2019-05-09T15:41:39.629Z,11.48
2019-05-09T15:44:11.268Z,11.05
2019-05-09T15:46:48.277Z,9.28
2019-05-09T15:49:19.835Z,7.65
2019-05-09T15:51:51.252Z,8.60
2019-05-09T15:54:22.823Z,6.12
2019-05-09T15:56:54.732Z,8.30
2019-05-09T15:59:28.055Z,8.50
2019-05-09T16:01:59.735Z,9.90
2019-05-09T16:04:31.104Z,8.53
2019-05-09T16:07:03.516Z,8.73
2019-05-09T16:09:37.776Z,7.72
2019-05-09T16:12:08.835Z,10.93
2019-05-09T16:14:40.246Z,9.70
2019-05-09T16:17:11.640Z,8.20
2019-05-09T16:19:44.015Z,8.30
2019-05-09T16:22:18.916Z,13.40
2019-05-09T16:24:49.977Z,8.10
2019-05-09T16:27:21.649Z,13.40
2019-05-09T16:29:54.089Z,9.27
2019-05-09T16:32:27.481Z,12.20
2019-05-09T16:34:58.826Z,10.83
2019-05-09T16:37:49.610Z,11.97
2019-05-09T16:40:04.204Z,10.27
2019-05-09T16:42:37.952Z,9.78
2019-05-09T16:45:10.377Z,10.10
2019-05-09T16:47:43.097Z,10.87
2019-05-09T16:50:17.853Z,15.33
2019-05-09T16:52:50.920Z,11.93
2019-05-09T16:55:31.217Z,13.77
2019-05-09T16:58:00.559Z,11.90
2019-05-09T17:00:40.217Z,12.50
2019-05-09T17:03:12.508Z,12.93
2019-05-09T17:05:44.988Z,14.23
2019-05-09T17:08:18.519Z,12.67
2019-05-09T17:10:50.112Z,13.17
2019-05-09T17:13:21.597Z,14.50
2019-05-09T17:15:53.600Z,14.37
2019-05-09T17:18:28.393Z,14.33
2019-05-09T17:21:18.474Z,15.13
2019-05-09T17:23:47.643Z,13.97
2019-05-09T17:26:19.927Z,13.27
2019-05-09T17:28:51.320Z,13.67
2019-05-09T17:31:24.236Z,16.10
2019-05-09T17:33:57.731Z,14.13
2019-05-09T17:36:29.482Z,13.67
2019-05-09T17:39:00.852Z,14.53
2019-05-09T17:41:33.710Z,14.87
2019-05-09T17:44:07.529Z,15.47
2019-05-09T17:46:39.330Z,15.47
2019-05-09T17:49:11.805Z,14.37
2019-05-09T17:51:43.316Z,15.97
2019-05-09T17:54:18.106Z,15.90
2019-05-09T17:56:49.240Z,17.67
2019-05-09T17:59:21.317Z,21.63
2019-05-09T18:01:52.635Z,23.50
2019-05-09T18:04:24.261Z,23.17
2019-05-09T18:06:58.208Z,19.87
2019-05-09T18:09:28.855Z,22.80
2019-05-09T18:12:01.418Z,18.93
2019-05-09T18:14:34.098Z,20.80
2019-05-09T18:17:05.676Z,18.20
2019-05-09T18:19:38.109Z,18.67
2019-05-09T18:22:10.829Z,18.90
2019-05-09T18:24:42.797Z,18.47
2019-05-09T18:27:14.489Z,23.53
2019-05-09T18:29:47.597Z,23.17
2019-05-09T18:32:28.621Z,22.73
2019-05-09T18:35:32.066Z,22.40
2019-05-09T18:38:04.557Z,20.13
2019-05-09T18:40:35.991Z,23.57
2019-05-09T18:43:08.279Z,22.33
2019-05-09T18:45:39.692Z,21.63
2019-05-09T18:48:12.208Z,22.87
2019-05-09T18:50:43.982Z,22.53
2019-05-09T18:53:16.413Z,21.70
2019-05-09T18:55:48.787Z,21.40
2019-05-09T18:58:21.243Z,23.70
2019-05-09T19:00:53.653Z,19.80
2019-05-09T19:03:25.989Z,21.93
2019-05-09T19:05:59.649Z,21.97
2019-05-09T19:08:31.153Z,21.60
2019-05-09T19:11:03.178Z,23.60
2019-05-09T19:13:35.512Z,25.07
2019-05-09T19:16:29.575Z,22.97
2019-05-09T19:19:29.832Z,23.30
2019-05-09T19:22:04.955Z,21.97
2019-05-09T19:24:36.728Z,23.97
2019-05-09T19:27:08.072Z,25.97
2019-05-09T19:29:40.286Z,24.73
2019-05-09T19:32:12.213Z,25.77
2019-05-09T19:34:43.999Z,25.73
2019-05-09T19:37:16.300Z,25.87
2019-05-09T19:39:47.785Z,27.57
2019-05-09T19:42:19.205Z,28.80
2019-05-09T19:44:50.624Z,28.10
2019-05-09T19:47:22.152Z,26.40
2019-05-09T19:49:53.645Z,28.70
2019-05-09T19:52:37.411Z,27.83
2019-05-09T19:54:59.334Z,29.03
2019-05-09T19:57:31.718Z,30.93
2019-05-09T20:00:03.259Z,33.73
2019-05-09T20:02:36.131Z,39.20
2019-05-09T20:05:10.776Z,38.13
2019-05-09T20:07:42.437Z,42.83
2019-05-09T20:10:32.237Z,44.03
2019-05-09T20:13:14.038Z,44.70
2019-05-09T20:15:47.406Z,39.33
2019-05-09T20:18:20.065Z,41.80
2019-05-09T20:20:51.895Z,42.07
2019-05-09T20:23:24.388Z,43.43
2019-05-09T20:25:56.083Z,43.17
2019-05-09T20:28:29.192Z,46.07
2019-05-09T20:31:02.153Z,44.70
2019-05-09T20:33:35.197Z,45.50
2019-05-09T20:36:07.983Z,42.93
2019-05-09T20:38:39.943Z,42.97
2019-05-09T20:41:11.702Z,42.30
2019-05-09T20:43:43.364Z,40.53
2019-05-09T20:46:16.681Z,42.30
2019-05-09T20:48:50.236Z,43.53
2019-05-09T20:51:22.096Z,46.40
2019-05-09T20:53:53.895Z,47.47
2019-05-09T20:56:25.622Z,47.17
2019-05-09T20:58:58.201Z,42.23
2019-05-09T21:01:30.315Z,43.23
2019-05-09T21:04:02.177Z,42.63
2019-05-09T21:06:34.592Z,40.83
2019-05-09T21:09:08.216Z,39.83
2019-05-09T21:11:39.789Z,39.67
2019-05-09T21:14:11.640Z,40.83
2019-05-09T21:16:43.707Z,39.10
2019-05-09T21:19:15.817Z,42.23
2019-05-09T21:21:47.493Z,44.03
2019-05-09T21:24:19.120Z,40.87
2019-05-09T21:26:50.849Z,42.63
2019-05-09T21:29:22.416Z,42.93
2019-05-09T21:31:55.257Z,42.07
2019-05-09T21:34:27.818Z,43.87
2019-05-09T21:37:00.845Z,44.00
2019-05-09T21:39:32.849Z,42.47
2019-05-09T21:42:04.204Z,42.77
2019-05-09T21:44:37.120Z,40.50
2019-05-09T21:47:08.651Z,38.17
2019-05-09T21:49:40.032Z,37.83
2019-05-09T21:52:11.563Z,39.40
2019-05-09T21:54:42.961Z,38.00
2019-05-09T21:57:14.866Z,39.23
2019-05-09T21:59:46.519Z,35.10
2019-05-09T22:02:19.107Z,39.67
2019-05-09T22:04:50.590Z,39.73
2019-05-09T22:07:22.253Z,40.03
2019-05-09T22:09:54.306Z,36.53
2019-05-09T22:12:27.698Z,35.87
2019-05-09T22:15:03.894Z,35.17
2019-05-09T22:17:39.652Z,37.83
2019-05-09T22:20:14.878Z,35.30
2019-05-09T22:22:46.352Z,36.70
2019-05-09T22:25:19.406Z,36.70
2019-05-09T22:27:51.564Z,37.67
2019-05-09T22:30:23.156Z,34.90
2019-05-09T22:32:54.580Z,36.23
2019-05-09T22:35:27.030Z,37.80
2019-05-09T22:37:59.061Z,36.07
2019-05-09T22:40:30.677Z,38.13
2019-05-09T22:43:03.303Z,39.67
2019-05-09T22:45:35.701Z,36.97
2019-05-09T22:48:08.245Z,37.20
2019-05-09T22:50:40.517Z,35.33
2019-05-09T22:53:12.066Z,35.77
2019-05-09T22:55:43.592Z,38.97
2019-05-09T22:58:15.583Z,36.60
2019-05-09T23:00:47.340Z,41.10
2019-05-09T23:03:18.864Z,42.00
2019-05-09T23:05:50.743Z,38.67
2019-05-09T23:08:22.902Z,36.50
2019-05-09T23:10:54.468Z,38.97
2019-05-09T23:13:26.003Z,40.20
2019-05-09T23:15:58.365Z,42.27
2019-05-09T23:18:30.397Z,44.03
2019-05-09T23:21:03.383Z,39.20
2019-05-09T23:23:42.027Z,38.53
2019-05-09T23:26:18.834Z,38.90
2019-05-09T23:28:50.385Z,37.10
2019-05-09T23:31:29.769Z,40.97
2019-05-09T23:34:01.380Z,41.40
2019-05-09T23:36:32.661Z,38.77
2019-05-09T23:39:28.392Z,38.30
2019-05-09T23:41:59.711Z,43.60
2019-05-09T23:44:32.392Z,36.47
2019-05-09T23:47:05.330Z,33.30
2019-05-09T23:49:37.019Z,35.23
2019-05-09T23:52:08.380Z,34.80
2019-05-09T23:54:57.749Z,33.13
2019-05-09T23:57:47.639Z,32.23
